»·PEaware :: UAL1416 TXKF-KEWR

UAL1416 :: TXKF-KEWR

FLIGHT INFORMATION

Flight Status: Arrived
Operator:
United Airlines
More flights by this operator :: More flights under this callsign
Pilot: Cullen Chandler (7783)
Aircraft: BOEING 737-800
(B738)
More flights by this aircraft type
Origin: TXKF Bermuda Intl
Bermuda
Destination: KEWR Newark Intl
United States
More flights between these airports :: More routes between these airports
Route: BORNN1 BOVIC L461 MARIG YAALE YETTI MOUGH DONAA OWENZ CYN GXU RBV V249 METRO
File this flight plan on PilotEdge
Remarks:
Altitude:
(Current/Filed)
38,000ft
Speed:
(Current/Filed)
461kts
Departed: 16-Jul-17 12:51 PM
Arrived: 16-Jul-17 02:22 PM
Distance/Time
Traveled:
677nm/1:31
Distance/Time
To Go:
Arrived

Flight Plot

Page will automatically refresh every two minutes.

Flight plan parsing failed; only flown route is shown


Map Options




Map Legend


Flown Route
Filed Route
Departure Airport
Arrival Airport
Navaid (VOR, NDB)
Fix

Horizontal Profiles

Position Reports

Time Latitude Longitude Heading Altitude Ground
Speed
16-Jul-17 12:40 32.361131 -64.700726 151 19ft 0kts
16-Jul-17 12:41 32.361131 -64.700726 151 19ft 0kts
16-Jul-17 12:42 32.361131 -64.700726 151 19ft 0kts
16-Jul-17 12:43 32.361131 -64.700726 151 19ft 0kts
16-Jul-17 12:44 32.361131 -64.700726 151 19ft 0kts
16-Jul-17 12:45 32.361131 -64.700726 151 19ft 0kts
16-Jul-17 12:46 32.361131 -64.700726 151 19ft 0kts
16-Jul-17 12:47 32.361131 -64.700726 151 19ft 0kts
16-Jul-17 12:48 32.361532 -64.700987 136 19ft 2kts
16-Jul-17 12:49 32.361544 -64.701474 59 19ft 0kts
16-Jul-17 12:50 32.361561 -64.701440 58 19ft 1kts
16-Jul-17 12:51 32.363436 -64.699391 61 19ft 16kts
16-Jul-17 12:52 32.365454 -64.694229 28 19ft 8kts
16-Jul-17 12:53 32.365826 -64.694081 15 19ft 5kts
16-Jul-17 12:54 32.364176 -64.679209 102 24ft 153kts
16-Jul-17 12:55 32.354467 -64.623980 102 2406ft 184kts
16-Jul-17 12:56 32.368494 -64.557050 35 3573ft 277kts
16-Jul-17 12:57 32.444030 -64.554610 325 6931ft 288kts
16-Jul-17 12:58 32.503267 -64.619120 313 10028ft 298kts
16-Jul-17 12:59 32.565836 -64.695111 312 12095ft 343kts
16-Jul-17 13:00 32.617669 -64.787749 282 14970ft 347kts
16-Jul-17 13:01 32.640764 -64.900700 280 17598ft 359kts
16-Jul-17 13:02 32.663296 -65.018316 279 19984ft 372kts
16-Jul-17 13:03 32.686258 -65.139896 279 22153ft 385kts
16-Jul-17 13:04 32.716403 -65.263524 299 24054ft 405kts
16-Jul-17 13:05 32.784882 -65.372376 304 25825ft 419kts
16-Jul-17 13:06 32.856731 -65.482520 304 27637ft 424kts
16-Jul-17 13:07 32.929362 -65.591883 304 29481ft 421kts
16-Jul-17 13:08 33.001537 -65.700827 303 31011ft 419kts
16-Jul-17 13:09 33.073506 -65.809797 303 32334ft 418kts
16-Jul-17 13:10 33.144995 -65.918371 302 33447ft 417kts
16-Jul-17 13:11 33.216077 -66.026672 302 34411ft 415kts
16-Jul-17 13:12 33.305484 -66.112641 338 35221ft 432kts
16-Jul-17 13:13 33.420280 -66.153968 341 36022ft 431kts
16-Jul-17 13:14 33.534996 -66.193295 341 36681ft 430kts
16-Jul-17 13:15 33.649576 -66.232540 341 37257ft 430kts
16-Jul-17 13:16 33.764480 -66.272210 341 37766ft 430kts
16-Jul-17 13:17 33.879071 -66.312579 341 38117ft 432kts
16-Jul-17 13:18 33.995582 -66.353743 341 38197ft 443kts
16-Jul-17 13:19 34.115024 -66.396037 341 38195ft 455kts
16-Jul-17 13:20 34.237503 -66.439529 341 38190ft 467kts
16-Jul-17 13:21 34.363150 -66.484295 341 38192ft 479kts
16-Jul-17 13:22 34.492356 -66.530471 341 38184ft 488kts
16-Jul-17 13:23 34.621791 -66.576867 341 38183ft 487kts
16-Jul-17 13:24 34.751331 -66.623469 340 38184ft 487kts
16-Jul-17 13:25 34.878159 -66.677049 323 38190ft 477kts
16-Jul-17 13:26 34.985163 -66.771436 318 38189ft 474kts
16-Jul-17 13:27 35.089410 -66.868296 317 38165ft 474kts
16-Jul-17 13:28 35.193306 -66.965338 316 38155ft 472kts
16-Jul-17 13:29 35.296947 -67.062572 316 38153ft 470kts
16-Jul-17 13:30 35.400580 -67.160056 316 38153ft 470kts
16-Jul-17 13:31 35.503970 -67.257649 316 38156ft 470kts
16-Jul-17 13:32 35.607084 -67.355298 316 38156ft 469kts
16-Jul-17 13:33 35.709714 -67.452804 316 38157ft 469kts
16-Jul-17 13:34 35.812625 -67.550901 316 38156ft 467kts
16-Jul-17 13:35 35.915045 -67.648883 316 38159ft 467kts
16-Jul-17 13:36 36.017303 -67.747019 315 38164ft 467kts
16-Jul-17 13:37 36.119438 -67.845369 315 38153ft 466kts
16-Jul-17 13:38 36.221076 -67.943573 315 38152ft 465kts
16-Jul-17 13:39 36.305626 -68.025513 314 38159ft 465kts
16-Jul-17 13:40 36.400082 -68.116813 312 38113ft 405kts
16-Jul-17 13:41 36.489541 -68.204649 313 38031ft 418kts
16-Jul-17 13:42 36.582214 -68.295355 313 38024ft 429kts
16-Jul-17 13:43 36.675321 -68.386649 313 38018ft 428kts
16-Jul-17 13:44 36.768387 -68.478267 313 38017ft 428kts
16-Jul-17 13:45 36.861451 -68.570182 313 38016ft 428kts
16-Jul-17 13:46 36.952943 -68.660836 313 38024ft 428kts
16-Jul-17 13:47 37.045712 -68.753030 313 38028ft 427kts
16-Jul-17 13:48 37.138210 -68.845261 313 38021ft 427kts
16-Jul-17 13:49 37.230764 -68.937850 313 38020ft 427kts
16-Jul-17 13:50 37.323213 -69.030633 313 38019ft 427kts
16-Jul-17 13:51 37.685539 -69.397217 313 38038ft 427kts
16-Jul-17 13:52 38.079899 -69.801666 312 37936ft 428kts
16-Jul-17 13:53 38.250334 -69.978253 312 38015ft 429kts
16-Jul-17 13:54 38.316923 -70.092764 275 38037ft 394kts
16-Jul-17 13:55 38.352773 -70.224957 289 38023ft 405kts
16-Jul-17 13:56 38.602939 -70.901429 288 38003ft 404kts
16-Jul-17 13:57 38.779590 -71.389320 288 38067ft 401kts
16-Jul-17 13:58 38.938136 -71.835026 288 38033ft 413kts
16-Jul-17 13:59 39.115674 -72.342181 288 38003ft 429kts
16-Jul-17 14:00 39.296059 -72.866263 288 37908ft 437kts
16-Jul-17 14:01 39.455158 -73.336227 288 37996ft 437kts
16-Jul-17 14:02 39.481817 -73.415465 288 37583ft 441kts
16-Jul-17 14:03 39.545069 -73.604444 288 34748ft 435kts
16-Jul-17 14:04 39.686622 -74.033572 289 28638ft 406kts
16-Jul-17 14:05 39.823053 -74.438141 306 23085ft 380kts
16-Jul-17 14:06 39.996098 -74.580055 340 19438ft 373kts
16-Jul-17 14:07 40.093880 -74.554550 21 17845ft 375kts
16-Jul-17 14:08 40.178763 -74.515413 358 15992ft 355kts
16-Jul-17 14:09 40.261039 -74.564383 322 14482ft 331kts
16-Jul-17 14:10 40.366278 -74.644444 340 12287ft 327kts
16-Jul-17 14:11 40.413001 -74.650859 11 11351ft 323kts
16-Jul-17 14:12 40.469494 -74.613671 25 10336ft 315kts
16-Jul-17 14:13 40.538542 -74.565953 25 9139ft 293kts
16-Jul-17 14:14 40.607364 -74.518829 25 7977ft 273kts
16-Jul-17 14:15 40.673267 -74.473947 25 6931ft 269kts
16-Jul-17 14:16 40.728453 -74.436702 25 6094ft 266kts
16-Jul-17 14:17 40.787168 -74.397325 25 5167ft 254kts
16-Jul-17 14:18 40.837980 -74.349029 55 4275ft 242kts
16-Jul-17 14:19 40.852965 -74.282513 86 3655ft 227kts
16-Jul-17 14:20 40.856364 -74.200323 87 3168ft 228kts
16-Jul-17 14:21 40.837684 -74.124313 121 2853ft 228kts
16-Jul-17 14:22 40.789233 -74.099092 212 1881ft 192kts
16-Jul-17 14:23 40.747988 -74.129472 203 1147ft 170kts
16-Jul-17 14:24 40.708755 -74.154528 203 280ft 155kts
16-Jul-17 14:25 40.686646 -74.170155 236 26ft 16kts
16-Jul-17 14:26 40.686561 -74.170324 235 25ft 2kts
16-Jul-17 14:27 40.687288 -74.174238 314 25ft 15kts
16-Jul-17 14:28 40.691091 -74.172231 26 25ft 15kts
16-Jul-17 14:29 40.694852 -74.170725 352 25ft 13kts
16-Jul-17 14:30 40.697824 -74.172570 313 25ft 10kts
16-Jul-17 14:31 40.698874 -74.175420 194 25ft 3kts
16-Jul-17 14:32 40.698144 -74.175272 167 25ft 0kts

Navigation Log

Ident Type
Flight plan parsing failed, navigation log unavailable